sensor_id;sensor_type;location;lat;lon;timestamp;pressure;altitude;pressure_sealevel;temperature;humidity
53300;BME280;39187;48.476;8.310;2023-08-21T00:01:20;92053.00;;;23.61;87.40
53300;BME280;39187;48.476;8.310;2023-08-21T00:03:45;92050.47;;;23.57;87.30
53300;BME280;39187;48.476;8.310;2023-08-21T00:06:11;92049.00;;;23.42;87.64
53300;BME280;39187;48.476;8.310;2023-08-21T00:08:36;92049.44;;;23.55;86.86
53300;BME280;39187;48.476;8.310;2023-08-21T00:11:02;92040.78;;;23.36;87.50
53300;BME280;39187;48.476;8.310;2023-08-21T00:13:27;92042.47;;;23.34;87.94
53300;BME280;39187;48.476;8.310;2023-08-21T00:15:53;92043.13;;;23.29;87.98
53300;BME280;39187;48.476;8.310;2023-08-21T00:18:20;92037.84;;;23.40;87.51
53300;BME280;39187;48.476;8.310;2023-08-21T00:20:46;92037.41;;;23.27;88.09
53300;BME280;39187;48.476;8.310;2023-08-21T00:23:11;92031.94;;;23.41;87.44
53300;BME280;39187;48.476;8.310;2023-08-21T00:25:37;92040.84;;;23.42;86.45
53300;BME280;39187;48.476;8.310;2023-08-21T00:28:03;92040.75;;;23.16;88.08
53300;BME280;39187;48.476;8.310;2023-08-21T00:30:28;92033.34;;;23.16;87.72
53300;BME280;39187;48.476;8.310;2023-08-21T00:32:54;92032.09;;;23.17;88.44
53300;BME280;39187;48.476;8.310;2023-08-21T00:35:19;92034.53;;;22.81;90.55
53300;BME280;39187;48.476;8.310;2023-08-21T00:37:45;92037.28;;;23.01;89.53
53300;BME280;39187;48.476;8.310;2023-08-21T00:40:12;92031.88;;;22.86;90.21
53300;BME280;39187;48.476;8.310;2023-08-21T00:42:38;92030.66;;;22.87;90.93
53300;BME280;39187;48.476;8.310;2023-08-21T00:45:04;92030.75;;;22.93;90.51
53300;BME280;39187;48.476;8.310;2023-08-21T00:47:30;92033.59;;;22.84;91.67
53300;BME280;39187;48.476;8.310;2023-08-21T00:49:56;92027.59;;;22.79;91.88
53300;BME280;39187;48.476;8.310;2023-08-21T00:52:22;92035.94;;;22.76;92.61
53300;BME280;39187;48.476;8.310;2023-08-21T00:54:48;92030.78;;;22.78;92.72
53300;BME280;39187;48.476;8.310;2023-08-21T00:57:14;92020.84;;;22.60;92.84
53300;BME280;39187;48.476;8.310;2023-08-21T00:59:40;92020.88;;;22.75;92.33
53300;BME280;39187;48.476;8.310;2023-08-21T01:02:06;92022.38;;;22.47;93.68
53300;BME280;39187;48.476;8.310;2023-08-21T01:04:31;92026.28;;;22.46;93.30
53300;BME280;39187;48.476;8.310;2023-08-21T01:06:57;92027.22;;;22.72;91.21
53300;BME280;39187;48.476;8.310;2023-08-21T01:09:31;92028.72;;;22.73;91.06
53300;BME280;39187;48.476;8.310;2023-08-21T01:14:58;92032.19;;;22.59;91.05
53300;BME280;39187;48.476;8.310;2023-08-21T01:17:25;92030.59;;;22.37;91.99
53300;BME280;39187;48.476;8.310;2023-08-21T01:19:52;92029.34;;;22.68;90.15
53300;BME280;39187;48.476;8.310;2023-08-21T01:22:18;92032.28;;;22.64;90.04
53300;BME280;39187;48.476;8.310;2023-08-21T01:24:44;92039.69;;;22.78;88.82
53300;BME280;39187;48.476;8.310;2023-08-21T01:27:10;92037.41;;;22.48;89.63
53300;BME280;39187;48.476;8.310;2023-08-21T01:29:37;92036.09;;;22.43;90.55
53300;BME280;39187;48.476;8.310;2023-08-21T01:32:27;92029.38;;;22.38;90.13
53300;BME280;39187;48.476;8.310;2023-08-21T01:34:55;92027.78;;;22.32;90.64
53300;BME280;39187;48.476;8.310;2023-08-21T01:37:22;92030.69;;;22.43;89.39
53300;BME280;39187;48.476;8.310;2023-08-21T01:39:47;92033.50;;;22.34;90.00
53300;BME280;39187;48.476;8.310;2023-08-21T01:42:13;92035.66;;;22.59;88.00
53300;BME280;39187;48.476;8.310;2023-08-21T01:44:38;92032.16;;;22.15;90.10
53300;BME280;39187;48.476;8.310;2023-08-21T01:47:04;92028.91;;;22.40;88.71
53300;BME280;39187;48.476;8.310;2023-08-21T01:49:29;92027.03;;;22.31;89.57
53300;BME280;39187;48.476;8.310;2023-08-21T01:51:55;92020.75;;;22.11;90.89
53300;BME280;39187;48.476;8.310;2023-08-21T01:54:20;92023.09;;;22.18;89.90
53300;BME280;39187;48.476;8.310;2023-08-21T01:56:46;92024.63;;;22.33;89.20
53300;BME280;39187;48.476;8.310;2023-08-21T01:59:11;92029.00;;;22.31;89.44
53300;BME280;39187;48.476;8.310;2023-08-21T02:01:37;92019.38;;;22.45;88.37
53300;BME280;39187;48.476;8.310;2023-08-21T02:04:02;92022.16;;;22.50;87.98
53300;BME280;39187;48.476;8.310;2023-08-21T02:06:28;92024.63;;;22.33;88.52
53300;BME280;39187;48.476;8.310;2023-08-21T02:08:53;92024.13;;;22.20;89.44
53300;BME280;39187;48.476;8.310;2023-08-21T02:11:19;92021.31;;;22.29;88.77
53300;BME280;39187;48.476;8.310;2023-08-21T02:13:44;92018.22;;;22.22;89.59
53300;BME280;39187;48.476;8.310;2023-08-21T02:16:10;92027.13;;;22.52;87.96
53300;BME280;39187;48.476;8.310;2023-08-21T02:18:35;92024.66;;;22.10;89.92
53300;BME280;39187;48.476;8.310;2023-08-21T02:21:01;92025.16;;;22.08;89.94
53300;BME280;39187;48.476;8.310;2023-08-21T02:23:27;92026.00;;;22.14;88.89
53300;BME280;39187;48.476;8.310;2023-08-21T02:25:54;92012.44;;;22.29;87.79
53300;BME280;39187;48.476;8.310;2023-08-21T02:28:19;92025.53;;;22.30;87.94
53300;BME280;39187;48.476;8.310;2023-08-21T02:30:45;92017.88;;;22.44;86.99
53300;BME280;39187;48.476;8.310;2023-08-21T02:33:10;92020.75;;;22.25;88.04
53300;BME280;39187;48.476;8.310;2023-08-21T02:35:36;92020.19;;;22.36;87.50
53300;BME280;39187;48.476;8.310;2023-08-21T02:38:02;92028.97;;;22.16;88.11
53300;BME280;39187;48.476;8.310;2023-08-21T02:40:27;92024.63;;;22.33;87.57
53300;BME280;39187;48.476;8.310;2023-08-21T02:42:53;92029.91;;;22.28;87.83
53300;BME280;39187;48.476;8.310;2023-08-21T02:45:18;92031.34;;;22.38;87.43
53300;BME280;39187;48.476;8.310;2023-08-21T02:47:44;92028.06;;;22.34;87.74
53300;BME280;39187;48.476;8.310;2023-08-21T02:50:10;92028.16;;;22.39;87.66
53300;BME280;39187;48.476;8.310;2023-08-21T02:52:36;92023.56;;;22.16;89.11
53300;BME280;39187;48.476;8.310;2023-08-21T02:55:03;92031.88;;;22.13;90.07
53300;BME280;39187;48.476;8.310;2023-08-21T02:57:29;92024.97;;;22.12;90.12
53300;BME280;39187;48.476;8.310;2023-08-21T02:59:56;92017.97;;;22.20;89.96
53300;BME280;39187;48.476;8.310;2023-08-21T03:02:21;92016.53;;;22.10;90.42
53300;BME280;39187;48.476;8.310;2023-08-21T03:04:47;92020.44;;;22.09;90.84
53300;BME280;39187;48.476;8.310;2023-08-21T03:07:14;92020.75;;;22.11;90.96
53300;BME280;39187;48.476;8.310;2023-08-21T03:09:40;92020.25;;;21.97;92.38
53300;BME280;39187;48.476;8.310;2023-08-21T03:12:06;92019.72;;;22.08;91.86
53300;BME280;39187;48.476;8.310;2023-08-21T03:14:32;92011.97;;;22.01;92.49
53300;BME280;39187;48.476;8.310;2023-08-21T03:16:57;92008.34;;;21.80;96.03
53300;BME280;39187;48.476;8.310;2023-08-21T03:19:23;92016.66;;;21.91;97.07
53300;BME280;39187;48.476;8.310;2023-08-21T03:21:49;92011.03;;;22.19;94.70
53300;BME280;39187;48.476;8.310;2023-08-21T03:24:14;92012.44;;;22.14;95.72
53300;BME280;39187;48.476;8.310;2023-08-21T03:26:40;92010.75;;;22.31;95.20
53300;BME280;39187;48.476;8.310;2023-08-21T03:29:05;92016.56;;;22.24;95.04
53300;BME280;39187;48.476;8.310;2023-08-21T03:31:31;92011.59;;;22.23;95.56
53300;BME280;39187;48.476;8.310;2023-08-21T03:33:57;92022.38;;;21.93;97.30
53300;BME280;39187;48.476;8.310;2023-08-21T03:36:23;92013.34;;;22.11;96.60
53300;BME280;39187;48.476;8.310;2023-08-21T03:38:59;92016.63;;;22.15;95.92
53300;BME280;39187;48.476;8.310;2023-08-21T03:41:25;92017.47;;;22.21;94.79
53300;BME280;39187;48.476;8.310;2023-08-21T03:43:51;92015.50;;;22.22;94.24
53300;BME280;39187;48.476;8.310;2023-08-21T03:46:16;92010.75;;;22.31;93.58
53300;BME280;39187;48.476;8.310;2023-08-21T03:48:42;92017.41;;;22.30;93.57
53300;BME280;39187;48.476;8.310;2023-08-21T03:51:07;92023.94;;;22.24;94.46
53300;BME280;39187;48.476;8.310;2023-08-21T03:53:33;92023.28;;;22.14;94.93
53300;BME280;39187;48.476;8.310;2023-08-21T03:55:58;92016.63;;;22.15;95.02
53300;BME280;39187;48.476;8.310;2023-08-21T03:58:24;92024.75;;;22.15;95.08
53300;BME280;39187;48.476;8.310;2023-08-21T04:00:52;92026.56;;;22.18;95.17
53300;BME280;39187;48.476;8.310;2023-08-21T04:03:17;92033.84;;;22.12;95.42
53300;BME280;39187;48.476;8.310;2023-08-21T04:05:43;92035.72;;;22.06;95.75
53300;BME280;39187;48.476;8.310;2023-08-21T04:08:08;92031.88;;;22.13;95.22
53300;BME280;39187;48.476;8.310;2023-08-21T04:10:34;92031.41;;;22.14;94.52
53300;BME280;39187;48.476;8.310;2023-08-21T04:12:59;92035.59;;;22.15;94.47
53300;BME280;39187;48.476;8.310;2023-08-21T04:15:25;92039.72;;;22.11;94.79
53300;BME280;39187;48.476;8.310;2023-08-21T04:17:51;92037.09;;;22.16;94.70
53300;BME280;39187;48.476;8.310;2023-08-21T04:20:17;92033.38;;;22.14;94.79
53300;BME280;39187;48.476;8.310;2023-08-21T04:22:43;92029.81;;;22.08;94.42
53300;BME280;39187;48.476;8.310;2023-08-21T04:25:08;92033.91;;;22.03;97.37
53300;BME280;39187;48.476;8.310;2023-08-21T04:27:34;92034.56;;;21.98;97.72
53300;BME280;39187;48.476;8.310;2023-08-21T04:30:00;92036.47;;;22.07;96.96
53300;BME280;39187;48.476;8.310;2023-08-21T04:32:25;92036.00;;;22.08;97.91
53300;BME280;39187;48.476;8.310;2023-08-21T04:34:51;92048.06;;;22.07;98.27
53300;BME280;39187;48.476;8.310;2023-08-21T04:37:16;92043.09;;;22.06;97.73
53300;BME280;39187;48.476;8.310;2023-08-21T04:39:42;92037.97;;;22.08;97.20
53300;BME280;39187;48.476;8.310;2023-08-21T04:42:07;92041.28;;;22.03;97.74
53300;BME280;39187;48.476;8.310;2023-08-21T04:44:33;92043.25;;;22.02;99.07
53300;BME280;39187;48.476;8.310;2023-08-21T04:47:27;92044.97;;;21.90;98.31
53300;BME280;39187;48.476;8.310;2023-08-21T04:49:53;92045.34;;;22.07;98.56
53300;BME280;39187;48.476;8.310;2023-08-21T04:52:20;92044.22;;;22.14;98.58
53300;BME280;39187;48.476;8.310;2023-08-21T04:54:47;92044.03;;;22.17;99.72
53300;BME280;39187;48.476;8.310;2023-08-21T04:57:12;92044.22;;;22.28;99.74
53300;BME280;39187;48.476;8.310;2023-08-21T04:59:38;92040.22;;;22.38;99.17
53300;BME280;39187;48.476;8.310;2023-08-21T05:02:04;92046.78;;;22.47;98.37
53300;BME280;39187;48.476;8.310;2023-08-21T05:04:29;92047.88;;;22.99;96.38
53300;BME280;39187;48.476;8.310;2023-08-21T05:06:55;92058.84;;;23.04;95.45
53300;BME280;39187;48.476;8.310;2023-08-21T05:09:20;92056.94;;;23.60;92.19
53300;BME280;39187;48.476;8.310;2023-08-21T05:11:46;92059.25;;;23.87;90.41
53300;BME280;39187;48.476;8.310;2023-08-21T05:14:11;92061.47;;;23.34;93.51
53300;BME280;39187;48.476;8.310;2023-08-21T05:16:37;92053.13;;;23.72;91.40
53300;BME280;39187;48.476;8.310;2023-08-21T05:19:02;92058.09;;;23.74;91.25
53300;BME280;39187;48.476;8.310;2023-08-21T05:21:29;92060.69;;;24.49;87.95
53300;BME280;39187;48.476;8.310;2023-08-21T05:23:55;92053.25;;;24.75;85.11
53300;BME280;39187;48.476;8.310;2023-08-21T05:26:20;92056.81;;;24.87;83.81
53300;BME280;39187;48.476;8.310;2023-08-21T05:28:46;92056.34;;;25.57;80.51
53300;BME280;39187;48.476;8.310;2023-08-21T05:31:11;92057.09;;;26.11;76.41
53300;BME280;39187;48.476;8.310;2023-08-21T05:33:37;92057.56;;;26.04;76.86
53300;BME280;39187;48.476;8.310;2023-08-21T05:36:03;92057.72;;;26.65;72.84
53300;BME280;39187;48.476;8.310;2023-08-21T05:38:28;92050.84;;;27.26;70.15
53300;BME280;39187;48.476;8.310;2023-08-21T05:40:54;92058.53;;;26.88;70.99
53300;BME280;39187;48.476;8.310;2023-08-21T05:43:19;92051.31;;;26.91;68.79
53300;BME280;39187;48.476;8.310;2023-08-21T05:45:45;92062.25;;;27.02;67.66
53300;BME280;39187;48.476;8.310;2023-08-21T05:48:10;92060.69;;;27.79;65.75
53300;BME280;39187;48.476;8.310;2023-08-21T05:50:36;92057.63;;;27.99;63.75
53300;BME280;39187;48.476;8.310;2023-08-21T05:53:05;92047.59;;;28.76;61.32
53300;BME280;39187;48.476;8.310;2023-08-21T05:55:31;92055.13;;;29.00;58.46
53300;BME280;39187;48.476;8.310;2023-08-21T05:57:56;92061.44;;;28.43;59.60
53300;BME280;39187;48.476;8.310;2023-08-21T06:00:22;92061.50;;;28.84;59.04
53300;BME280;39187;48.476;8.310;2023-08-21T06:02:47;92060.84;;;29.92;55.16
53300;BME280;39187;48.476;8.310;2023-08-21T06:05:13;92068.28;;;30.15;53.49
53300;BME280;39187;48.476;8.310;2023-08-21T06:07:38;92070.47;;;30.65;53.05
53300;BME280;39187;48.476;8.310;2023-08-21T06:10:07;92068.03;;;30.19;53.30
53300;BME280;39187;48.476;8.310;2023-08-21T06:12:32;92065.75;;;30.79;52.07
53300;BME280;39187;48.476;8.310;2023-08-21T06:14:58;92066.28;;;30.78;51.17
53300;BME280;39187;48.476;8.310;2023-08-21T06:17:23;92073.25;;;30.97;49.94
53300;BME280;39187;48.476;8.310;2023-08-21T06:19:49;92073.06;;;30.58;50.64
53300;BME280;39187;48.476;8.310;2023-08-21T06:22:14;92071.91;;;31.23;49.16
53300;BME280;39187;48.476;8.310;2023-08-21T06:24:40;92070.66;;;31.05;49.78
53300;BME280;39187;48.476;8.310;2023-08-21T06:27:06;92072.34;;;31.40;47.55
53300;BME280;39187;48.476;8.310;2023-08-21T06:29:32;92079.06;;;30.56;49.04
53300;BME280;39187;48.476;8.310;2023-08-21T06:31:58;92073.03;;;31.14;48.62
53300;BME280;39187;48.476;8.310;2023-08-21T06:34:23;92075.97;;;29.74;50.00
53300;BME280;39187;48.476;8.310;2023-08-21T06:36:49;92081.06;;;29.34;51.97
53300;BME280;39187;48.476;8.310;2023-08-21T06:39:14;92082.03;;;31.15;48.08
53300;BME280;39187;48.476;8.310;2023-08-21T06:41:40;92083.06;;;31.57;48.06
53300;BME280;39187;48.476;8.310;2023-08-21T06:44:05;92085.09;;;31.24;47.25
53300;BME280;39187;48.476;8.310;2023-08-21T06:46:32;92082.56;;;30.57;47.13
53300;BME280;39187;48.476;8.310;2023-08-21T06:48:58;92086.50;;;30.18;48.18
53300;BME280;39187;48.476;8.310;2023-08-21T06:51:23;92086.91;;;31.22;46.19
53300;BME280;39187;48.476;8.310;2023-08-21T06:53:49;92089.28;;;31.76;45.27
53300;BME280;39187;48.476;8.310;2023-08-21T06:56:15;92095.69;;;30.83;45.88
53300;BME280;39187;48.476;8.310;2023-08-21T06:58:40;92087.75;;;31.17;45.48
53300;BME280;39187;48.476;8.310;2023-08-21T07:01:06;92085.50;;;31.47;44.61
53300;BME280;39187;48.476;8.310;2023-08-21T07:03:31;92084.72;;;31.33;44.25
53300;BME280;39187;48.476;8.310;2023-08-21T07:05:58;92090.66;;;31.05;44.96
53300;BME280;39187;48.476;8.310;2023-08-21T07:08:25;92095.72;;;30.21;47.38
53300;BME280;39187;48.476;8.310;2023-08-21T07:10:51;92096.03;;;31.30;45.64
53300;BME280;39187;48.476;8.310;2023-08-21T07:13:17;92085.25;;;31.64;44.40
53300;BME280;39187;48.476;8.310;2023-08-21T07:15:43;92096.41;;;31.84;44.46
53300;BME280;39187;48.476;8.310;2023-08-21T07:18:08;92095.28;;;32.19;43.38
53300;BME280;39187;48.476;8.310;2023-08-21T07:20:34;92099.13;;;31.39;45.59
53300;BME280;39187;48.476;8.310;2023-08-21T07:23:00;92097.47;;;30.80;46.72
53300;BME280;39187;48.476;8.310;2023-08-21T07:25:26;92098.75;;;31.17;46.26
53300;BME280;39187;48.476;8.310;2023-08-21T07:27:52;92101.56;;;31.88;45.26
53300;BME280;39187;48.476;8.310;2023-08-21T07:30:20;92106.16;;;32.12;44.37
53300;BME280;39187;48.476;8.310;2023-08-21T07:32:47;92099.91;;;31.98;44.81
53300;BME280;39187;48.476;8.310;2023-08-21T07:35:13;92098.94;;;32.09;45.21
53300;BME280;39187;48.476;8.310;2023-08-21T07:37:38;92099.34;;;30.91;47.07
53300;BME280;39187;48.476;8.310;2023-08-21T07:40:06;92096.09;;;32.01;45.22
53300;BME280;39187;48.476;8.310;2023-08-21T07:42:32;92087.31;;;32.42;44.18
53300;BME280;39187;48.476;8.310;2023-08-21T07:44:57;92097.34;;;32.79;43.96
53300;BME280;39187;48.476;8.310;2023-08-21T07:47:23;92097.81;;;33.04;43.56
53300;BME280;39187;48.476;8.310;2023-08-21T07:49:49;92103.91;;;32.89;43.11
53300;BME280;39187;48.476;8.310;2023-08-21T07:52:14;92096.19;;;32.75;43.20
53300;BME280;39187;48.476;8.310;2023-08-21T07:54:41;92101.19;;;33.10;42.91
53300;BME280;39187;48.476;8.310;2023-08-21T07:57:07;92100.09;;;33.26;43.00
53300;BME280;39187;48.476;8.310;2023-08-21T07:59:32;92104.66;;;32.90;42.91
53300;BME280;39187;48.476;8.310;2023-08-21T08:01:58;92098.34;;;33.36;42.31
53300;BME280;39187;48.476;8.310;2023-08-21T08:04:25;92102.13;;;33.26;42.20
53300;BME280;39187;48.476;8.310;2023-08-21T08:06:51;92097.34;;;32.79;43.38
53300;BME280;39187;48.476;8.310;2023-08-21T08:09:16;92106.50;;;33.08;42.92
53300;BME280;39187;48.476;8.310;2023-08-21T08:11:42;92103.53;;;33.06;42.63
53300;BME280;39187;48.476;8.310;2023-08-21T08:14:07;92099.63;;;33.56;41.92
53300;BME280;39187;48.476;8.310;2023-08-21T08:16:33;92102.66;;;33.45;42.80
53300;BME280;39187;48.476;8.310;2023-08-21T08:18:59;92101.28;;;33.72;41.76
53300;BME280;39187;48.476;8.310;2023-08-21T08:21:24;92104.72;;;33.86;40.74
53300;BME280;39187;48.476;8.310;2023-08-21T08:23:50;92094.16;;;33.43;42.13
53300;BME280;39187;48.476;8.310;2023-08-21T08:26:15;92106.38;;;33.89;42.30
53300;BME280;39187;48.476;8.310;2023-08-21T08:28:42;92107.66;;;33.88;42.11
53300;BME280;39187;48.476;8.310;2023-08-21T08:31:17;92108.41;;;33.47;42.12
53300;BME280;39187;48.476;8.310;2023-08-21T08:33:43;92099.75;;;33.30;42.33
53300;BME280;39187;48.476;8.310;2023-08-21T08:36:09;92100.31;;;33.91;41.59
53300;BME280;39187;48.476;8.310;2023-08-21T08:38:34;92110.00;;;32.75;43.07
53300;BME280;39187;48.476;8.310;2023-08-21T08:41:02;92112.53;;;32.33;43.86
53300;BME280;39187;48.476;8.310;2023-08-21T08:43:27;92113.09;;;33.05;42.59
53300;BME280;39187;48.476;8.310;2023-08-21T08:45:56;92107.72;;;33.75;41.24
53300;BME280;39187;48.476;8.310;2023-08-21T08:48:23;92098.53;;;34.01;41.22
53300;BME280;39187;48.476;8.310;2023-08-21T08:50:50;92100.88;;;34.17;41.54
53300;BME280;39187;48.476;8.310;2023-08-21T08:53:17;92100.78;;;34.31;42.00
53300;BME280;39187;48.476;8.310;2023-08-21T08:55:44;92091.81;;;33.89;42.22
53300;BME280;39187;48.476;8.310;2023-08-21T08:58:10;92103.09;;;33.15;42.89
53300;BME280;39187;48.476;8.310;2023-08-21T09:00:36;92107.03;;;32.20;44.50
53300;BME280;39187;48.476;8.310;2023-08-21T09:03:02;92102.88;;;33.13;43.17
53300;BME280;39187;48.476;8.310;2023-08-21T09:05:28;92108.63;;;33.36;42.28
53300;BME280;39187;48.476;8.310;2023-08-21T09:10:32;92114.34;;;32.44;44.42
53300;BME280;39187;48.476;8.310;2023-08-21T09:12:58;92110.84;;;32.43;43.81
53300;BME280;39187;48.476;8.310;2023-08-21T09:15:29;92107.25;;;32.48;43.76
53300;BME280;39187;48.476;8.310;2023-08-21T09:17:55;92113.59;;;32.56;43.87
53300;BME280;39187;48.476;8.310;2023-08-21T09:20:21;92114.25;;;32.49;44.32
53300;BME280;39187;48.476;8.310;2023-08-21T09:22:54;92104.72;;;32.24;44.44
53300;BME280;39187;48.476;8.310;2023-08-21T09:25:23;92098.56;;;32.18;44.61
53300;BME280;39187;48.476;8.310;2023-08-21T09:27:52;92112.94;;;31.98;44.72
53300;BME280;39187;48.476;8.310;2023-08-21T09:30:19;92114.81;;;31.76;45.03
53300;BME280;39187;48.476;8.310;2023-08-21T09:32:57;92113.44;;;31.51;45.66
53300;BME280;39187;48.476;8.310;2023-08-21T09:35:25;92113.69;;;31.21;46.81
53300;BME280;39187;48.476;8.310;2023-08-21T09:37:51;92114.78;;;30.75;48.61
53300;BME280;39187;48.476;8.310;2023-08-21T09:40:21;92118.97;;;29.96;49.91
53300;BME280;39187;48.476;8.310;2023-08-21T09:42:54;92115.03;;;30.10;50.99
53300;BME280;39187;48.476;8.310;2023-08-21T09:45:23;92109.78;;;29.87;52.30
53300;BME280;39187;48.476;8.310;2023-08-21T09:47:51;92107.84;;;30.07;51.39
53300;BME280;39187;48.476;8.310;2023-08-21T09:50:18;92112.50;;;30.36;50.65
53300;BME280;39187;48.476;8.310;2023-08-21T09:52:45;92108.34;;;30.48;50.66
53300;BME280;39187;48.476;8.310;2023-08-21T09:55:13;92096.50;;;30.40;48.85
53300;BME280;39187;48.476;8.310;2023-08-21T09:57:39;92104.16;;;31.22;48.38
53300;BME280;39187;48.476;8.310;2023-08-21T10:00:07;92106.78;;;30.77;48.11
53300;BME280;39187;48.476;8.310;2023-08-21T10:02:50;92109.44;;;30.21;48.19
53300;BME280;39187;48.476;8.310;2023-08-21T10:05:16;92095.03;;;30.15;49.73
53300;BME280;39187;48.476;8.310;2023-08-21T10:07:44;92093.50;;;29.95;49.52
53300;BME280;39187;48.476;8.310;2023-08-21T10:10:13;92101.16;;;30.45;48.85
53300;BME280;39187;48.476;8.310;2023-08-21T10:12:38;92094.44;;;30.65;48.98
53300;BME280;39187;48.476;8.310;2023-08-21T10:15:07;92094.03;;;30.37;49.63
53300;BME280;39187;48.476;8.310;2023-08-21T10:17:35;92093.00;;;29.91;50.13
53300;BME280;39187;48.476;8.310;2023-08-21T10:20:05;92088.03;;;29.89;50.60
53300;BME280;39187;48.476;8.310;2023-08-21T10:22:45;92087.44;;;29.48;52.06
53300;BME280;39187;48.476;8.310;2023-08-21T10:25:15;92084.78;;;29.67;53.40
53300;BME280;39187;48.476;8.310;2023-08-21T10:27:42;92077.78;;;29.96;51.01
53300;BME280;39187;48.476;8.310;2023-08-21T10:30:15;92083.41;;;30.03;50.89
53300;BME280;39187;48.476;8.310;2023-08-21T10:32:46;92081.78;;;29.95;51.30
53300;BME280;39187;48.476;8.310;2023-08-21T10:35:17;92080.06;;;29.92;52.00
53300;BME280;39187;48.476;8.310;2023-08-21T10:40:32;92078.97;;;29.46;54.32
53300;BME280;39187;48.476;8.310;2023-08-21T10:42:58;92080.03;;;29.67;52.75
53300;BME280;39187;48.476;8.310;2023-08-21T10:45:24;92085.75;;;29.69;52.85
53300;BME280;39187;48.476;8.310;2023-08-21T10:47:49;92090.44;;;29.50;52.93
53300;BME280;39187;48.476;8.310;2023-08-21T10:50:16;92077.09;;;29.30;54.44
53300;BME280;39187;48.476;8.310;2023-08-21T10:52:43;92077.59;;;29.28;54.34
53300;BME280;39187;48.476;8.310;2023-08-21T10:55:16;92089.31;;;28.52;57.95
53300;BME280;39187;48.476;8.310;2023-08-21T10:57:45;92080.56;;;28.59;58.01
53300;BME280;39187;48.476;8.310;2023-08-21T11:00:13;92077.03;;;29.05;57.99
53300;BME280;39187;48.476;8.310;2023-08-21T11:02:44;92074.97;;;29.17;59.80
53300;BME280;39187;48.476;8.310;2023-08-21T11:05:11;92078.25;;;29.10;58.38
53300;BME280;39187;48.476;8.310;2023-08-21T11:07:38;92079.84;;;29.30;57.95
53300;BME280;39187;48.476;8.310;2023-08-21T11:10:06;92079.78;;;29.41;56.80
53300;BME280;39187;48.476;8.310;2023-08-21T11:12:33;92088.31;;;29.62;55.77
53300;BME280;39187;48.476;8.310;2023-08-21T11:14:59;92082.44;;;29.76;55.09
53300;BME280;39187;48.476;8.310;2023-08-21T11:17:25;92076.41;;;29.78;54.88
53300;BME280;39187;48.476;8.310;2023-08-21T11:19:50;92080.38;;;29.82;54.77
53300;BME280;39187;48.476;8.310;2023-08-21T11:22:17;92084.81;;;29.37;57.37
53300;BME280;39187;48.476;8.310;2023-08-21T11:24:43;92083.56;;;29.62;57.21
53300;BME280;39187;48.476;8.310;2023-08-21T11:27:12;92081.84;;;28.94;58.43
53300;BME280;39187;48.476;8.310;2023-08-21T11:29:44;92073.94;;;28.85;59.75
53300;BME280;39187;48.476;8.310;2023-08-21T11:32:14;92072.41;;;28.89;58.77
53300;BME280;39187;48.476;8.310;2023-08-21T11:34:53;92081.09;;;28.52;60.36
53300;BME280;39187;48.476;8.310;2023-08-21T11:37:21;92087.00;;;28.62;62.08
53300;BME280;39187;48.476;8.310;2023-08-21T11:39:49;92082.84;;;28.50;61.97
53300;BME280;39187;48.476;8.310;2023-08-21T11:42:16;92072.78;;;28.63;62.27
53300;BME280;39187;48.476;8.310;2023-08-21T11:44:52;92076.59;;;28.49;62.08
53300;BME280;39187;48.476;8.310;2023-08-21T11:47:20;92077.19;;;28.83;59.93
53300;BME280;39187;48.476;8.310;2023-08-21T11:49:47;92083.06;;;28.52;61.26
53300;BME280;39187;48.476;8.310;2023-08-21T11:52:17;92072.59;;;28.56;60.85
53300;BME280;39187;48.476;8.310;2023-08-21T11:54:43;92080.63;;;28.43;61.03
53300;BME280;39187;48.476;8.310;2023-08-21T11:57:12;92066.97;;;28.84;61.43
53300;BME280;39187;48.476;8.310;2023-08-21T11:59:38;92071.47;;;28.81;61.80
53300;BME280;39187;48.476;8.310;2023-08-21T12:02:13;92068.13;;;28.99;61.04
53300;BME280;39187;48.476;8.310;2023-08-21T12:04:40;92068.69;;;29.22;59.95
53300;BME280;39187;48.476;8.310;2023-08-21T12:07:05;92066.13;;;29.30;59.38
53300;BME280;39187;48.476;8.310;2023-08-21T12:09:31;92066.50;;;29.45;58.22
53300;BME280;39187;48.476;8.310;2023-08-21T12:11:57;92062.25;;;29.49;56.82
53300;BME280;39187;48.476;8.310;2023-08-21T12:14:23;92061.03;;;29.45;58.86
53300;BME280;39187;48.476;8.310;2023-08-21T12:16:48;92061.38;;;29.84;55.16
53300;BME280;39187;48.476;8.310;2023-08-21T12:19:14;92060.50;;;29.76;52.65
53300;BME280;39187;48.476;8.310;2023-08-21T12:21:40;92064.50;;;29.16;56.27
53300;BME280;39187;48.476;8.310;2023-08-21T12:24:05;92053.91;;;28.60;58.50
53300;BME280;39187;48.476;8.310;2023-08-21T12:26:34;92064.31;;;28.67;58.99
53300;BME280;39187;48.476;8.310;2023-08-21T12:29:00;92065.03;;;29.08;59.95
53300;BME280;39187;48.476;8.310;2023-08-21T12:31:26;92062.88;;;28.60;59.27
53300;BME280;39187;48.476;8.310;2023-08-21T12:33:52;92048.75;;;28.92;57.62
53300;BME280;39187;48.476;8.310;2023-08-21T12:36:17;92057.25;;;28.42;60.46
53300;BME280;39187;48.476;8.310;2023-08-21T12:38:43;92063.63;;;28.61;62.16
53300;BME280;39187;48.476;8.310;2023-08-21T12:41:08;92052.28;;;28.81;59.84
53300;BME280;39187;48.476;8.310;2023-08-21T12:43:34;92047.44;;;28.57;60.95
53300;BME280;39187;48.476;8.310;2023-08-21T12:45:59;92046.03;;;28.40;60.74
53300;BME280;39187;48.476;8.310;2023-08-21T12:48:25;92052.28;;;28.40;61.45
53300;BME280;39187;48.476;8.310;2023-08-21T12:50:50;92041.81;;;28.85;60.15
53300;BME280;39187;48.476;8.310;2023-08-21T12:53:16;92052.88;;;29.04;60.50
53300;BME280;39187;48.476;8.310;2023-08-21T12:55:42;92041.13;;;29.09;59.16
53300;BME280;39187;48.476;8.310;2023-08-21T12:58:08;92035.19;;;29.05;59.61
53300;BME280;39187;48.476;8.310;2023-08-21T13:00:33;92042.88;;;28.71;59.41
53300;BME280;39187;48.476;8.310;2023-08-21T13:02:59;92036.41;;;28.68;58.74
53300;BME280;39187;48.476;8.310;2023-08-21T13:05:25;92038.63;;;28.70;58.33